Osceola, Arkansas
Current Conditions -  °F | °C
As of 3:53 AM on Friday 19 Dec 2014 (Local Time) from KHKA Reporting Station
Overcast Overcast  
Wind Chill: 30°   Ceiling: 3900
Heat Index: 38°   Visibility: 8mi
Dew Point: 35°   Wind: 12mph
Humidity: 89%   Direction: 50°NE
Pressure: 30.24"   Gusts: NA
Location:  35.71°N, 89.97°W
Report Text: KHKA 190953Z AUTO 05010KT 8SM OVC039 03/02 A3024 RMK AO2 SLP240 T00330017
Loading
Personal Weather Stations






























Interactive Weather Map New forecast layout! Learn more

10-Day Weather Forecast

Advertisements
Track Severe Weather on mobile